Destinations Kassel-Calden Airport

Kassel-Calden Airport (EDVK / KSF)

Flights to Kassel-Calden Airport

Flight number From ETE Dispatch
SPY-124 EHGG Groningen Airport Eelde 01:05

Flights from Kassel-Calden Airport

Flight number To ETE Dispatch
SPY-125 EHGG Groningen Airport Eelde
About

Kassel-Calden Airport facts

Kassel-Calden Airport is located in Kassel at an elevation of 249.9 meters or 820 feet.

Currently, Speedy Airlines serves 2 flights to and from Kassel-Calden Airport.

Detailed airport info

Route map

Weather

Current weather

METAR

METAR

Metar data retrieved Sunday, 21 July 2024 at 18:25 UTC

EDVK 211750Z VRB02KT 9999 FEW003 SCT030CB 22/19 Q1009
Wind Temperature
2 kt 22c